Terminal Aerodrome Forecast
Issued by NWS Twin Cities, MN

Home | Current Version | Previous Version | Graphics & Text | Print | Product List | Glossary On
Versions: 1 2 3 4 5 6 7 8 9 10 11 12 13 14 15 16
245
FTUS43 KMPX 032341
TAFEAU
TAF
KEAU 032341Z 0400/0424 29007KT P6SM SCT035 SCT300
     FM040500 25003KT P6SM BKN070
     FM041500 19006KT 5SM -SN BR OVC020
      TEMPO 0416/0420 2SM -SN BR OVC010=

USA.gov is the U.S. government's official web portal to all federal, state and local government web resources and services.